Hartford, Connecticut
Current Conditions -  °F | °C
As of 3:53 AM on Sunday 23 Nov 2014 (Local Time) from KHFD Reporting Station
Overcast Overcast  
Wind Chill:   Ceiling: 11000
Heat Index:   Visibility: 10mi
Dew Point: -6°   Wind: 8mph
Humidity: 43%   Direction: 180°S
Pressure: 30.14"   Gusts: NA
Location:  41.76°N, 72.67°W
Report Text: KHFD 230853Z AUTO 18007KT 10SM SCT060 OVC110 06/M06 A3014 RMK AO2 SLP207 T00561061 51004
Loading
Personal Weather Stations






























Interactive Weather Map New forecast layout! Learn more

10-Day Weather Forecast

Advertisements
Track Severe Weather on mobile